Time;durP1;ratioP1;P1;durP2;ratioP2;P2;SDS_P1;SDS_P2;PMS_P1;PMS_P2;Temp;Humidity;BMP_temperature;BMP_pressure;BME280_temperature;BME280_humidity;BME280_pressure;Samples;Min_cycle;Max_cycle;Signal;HPM_P1;HPM_P2
2024/02/04 00:00:42;;;;;;;11.73;8.63;;;;;;;11.32;84.95;100335.38;4972934;28;20771;-76
2024/02/04 00:03:09;;;;;;;11.98;7.88;;;;;;;11.31;84.99;100339.81;4972846;28;20627;-77
2024/02/04 00:05:36;;;;;;;15.40;9.48;;;;;;;11.33;85.30;100339.75;4972496;28;20494;-76
2024/02/04 00:08:02;;;;;;;11.18;8.90;;;;;;;11.34;85.07;100347.53;4972927;28;20052;-77
2024/02/04 00:10:30;;;;;;;13.40;8.70;;;;;;;11.36;84.95;100350.09;4972636;28;20077;-75
2024/02/04 00:12:56;;;;;;;10.60;8.52;;;;;;;11.36;84.89;100344.84;4955329;28;20152;-78
2024/02/04 00:15:23;;;;;;;13.75;9.35;;;;;;;11.37;84.89;100348.34;4955078;28;20141;-76
2024/02/04 00:17:50;;;;;;;15.73;8.93;;;;;;;11.37;85.06;100345.69;4972562;28;20058;-77
2024/02/04 00:20:17;;;;;;;12.07;8.80;;;;;;;11.39;84.94;100339.41;4972741;28;20054;-76
2024/02/04 00:22:44;;;;;;;17.55;10.18;;;;;;;11.40;85.17;100332.38;4954734;28;20086;-75
2024/02/04 00:25:11;;;;;;;13.88;10.00;;;;;;;11.40;85.33;100327.94;4972429;28;20133;-76
2024/02/04 00:27:38;;;;;;;14.80;10.43;;;;;;;11.43;85.09;100321.66;4972612;28;20057;-76
2024/02/04 00:30:06;;;;;;;18.40;10.48;;;;;;;11.43;85.12;100322.50;4972214;28;20051;-77
2024/02/04 00:32:32;;;;;;;14.40;11.23;;;;;;;11.44;85.08;100320.75;4972465;28;20127;-75
2024/02/04 00:34:59;;;;;;;18.98;11.82;;;;;;;11.44;84.79;100315.47;4971936;28;20054;-76
2024/02/04 00:37:26;;;;;;;15.48;11.57;;;;;;;11.44;84.80;100311.03;4972663;28;20438;-79
2024/02/04 00:39:52;;;;;;;15.48;11.82;;;;;;;11.43;84.76;100313.75;4954868;28;20090;-75
2024/02/04 00:42:19;;;;;;;22.20;12.38;;;;;;;11.42;84.65;100309.41;4972358;28;20083;-77
2024/02/04 00:44:46;;;;;;;21.08;13.45;;;;;;;11.42;84.85;100302.38;4971768;28;20444;-74
2024/02/04 00:47:13;;;;;;;19.42;13.57;;;;;;;11.41;84.80;100300.66;4972341;28;20117;-76
2024/02/04 00:49:40;;;;;;;18.95;13.65;;;;;;;11.39;84.86;100291.97;4972348;28;20053;-76
2024/02/04 00:52:06;;;;;;;19.88;13.55;;;;;;;11.37;85.13;100296.47;4972227;28;20134;-78
2024/02/04 00:54:33;;;;;;;17.27;13.63;;;;;;;11.37;84.96;100306.16;4972083;28;20063;-78
2024/02/04 00:57:00;;;;;;;18.70;12.68;;;;;;;11.33;85.27;100303.69;4972207;28;20055;-76
2024/02/04 00:59:26;;;;;;;16.13;12.90;;;;;;;11.34;85.50;100307.19;4972209;28;20069;-76
2024/02/04 01:01:53;;;;;;;19.20;13.27;;;;;;;11.34;85.81;100300.09;4972204;28;20082;-77
2024/02/04 01:04:20;;;;;;;20.20;13.55;;;;;;;11.36;85.99;100309.75;4955011;28;20050;-78
2024/02/04 01:06:46;;;;;;;20.55;14.15;;;;;;;11.36;85.84;100310.56;4972141;28;20046;-76
2024/02/04 01:09:27;;;;;;;15.57;12.70;;;;;;;11.37;85.95;100304.38;5017568;23;20126;-79
2024/02/04 01:11:54;;;;;;;21.60;13.70;;;;;;;11.39;85.94;100312.19;4972241;28;20085;-78
2024/02/04 01:14:21;;;;;;;17.15;12.88;;;;;;;11.40;86.12;100311.28;4955174;28;20090;-79
2024/02/04 01:16:47;;;;;;;16.98;13.63;;;;;;;11.42;86.11;100306.78;4972464;28;20408;-78
2024/02/04 01:19:14;;;;;;;18.67;13.77;;;;;;;11.44;86.08;100311.03;4971923;28;20090;-78
2024/02/04 01:21:41;;;;;;;20.70;12.23;;;;;;;11.45;86.02;100314.53;4972003;28;20063;-80
2024/02/04 01:24:07;;;;;;;14.82;12.02;;;;;;;11.45;86.25;100311.88;4971968;28;20043;-79
2024/02/04 01:26:34;;;;;;;18.35;13.00;;;;;;;11.46;85.88;100313.59;4971848;28;20612;-80
2024/02/04 01:29:01;;;;;;;18.80;13.77;;;;;;;11.48;85.94;100319.66;4971997;28;20051;-78
2024/02/04 01:31:28;;;;;;;15.93;11.60;;;;;;;11.50;85.97;100320.41;4971871;28;20047;-78
2024/02/04 01:33:54;;;;;;;17.42;12.70;;;;;;;11.49;85.94;100318.72;4972740;28;20055;-79
2024/02/04 01:36:21;;;;;;;15.35;11.85;;;;;;;11.52;85.98;100321.19;4975430;28;20602;-79
2024/02/04 01:38:48;;;;;;;20.85;13.43;;;;;;;11.52;85.77;100318.56;4975838;28;20062;-78
2024/02/04 01:41:14;;;;;;;15.23;12.75;;;;;;;11.52;85.70;100313.28;4975685;28;20055;-80
2024/02/04 01:43:41;;;;;;;16.25;11.65;;;;;;;11.54;85.65;100305.28;4975563;28;20065;-77
2024/02/04 01:46:09;;;;;;;15.88;12.88;;;;;;;11.53;85.60;100301.81;4975450;28;20463;-81
2024/02/04 01:48:36;;;;;;;19.13;13.13;;;;;;;11.54;85.53;100287.69;4975608;28;20061;-79
2024/02/04 01:51:04;;;;;;;17.38;12.90;;;;;;;11.55;85.47;100301.72;4975440;28;20054;-79
2024/02/04 01:53:34;;;;;;;20.30;13.10;;;;;;;11.54;85.43;100315.81;4958244;28;20105;-78
2024/02/04 01:56:00;;;;;;;18.25;13.23;;;;;;;11.53;85.46;100307.06;4975389;28;20050;-80
2024/02/04 01:58:27;;;;;;;18.45;12.63;;;;;;;11.54;85.28;100310.53;4975456;28;20109;-77
2024/02/04 02:00:54;;;;;;;16.27;11.63;;;;;;;11.52;85.33;100315.94;4975394;28;20122;-78
2024/02/04 02:03:21;;;;;;;17.05;11.85;;;;;;;11.52;85.26;100307.16;4975167;28;20468;-80
2024/02/04 02:05:48;;;;;;;16.40;11.77;;;;;;;11.49;85.31;100305.53;4974957;28;20043;-79
2024/02/04 02:08:15;;;;;;;18.45;11.60;;;;;;;11.47;85.17;100308.25;4974942;28;20070;-79
2024/02/04 02:10:46;;;;;;;18.25;10.80;;;;;;;11.47;85.02;100299.47;4975227;28;20067;-78
2024/02/04 02:13:22;;;;;;;17.65;11.60;;;;;;;11.43;84.31;100282.97;4975289;28;20072;-76
2024/02/04 02:15:52;;;;;;;15.55;10.15;;;;;;;11.43;84.54;100284.75;4974943;28;20447;-76
2024/02/04 02:18:42;;;;;;;13.43;9.60;;;;;;;11.36;83.77;100270.19;4975063;28;20055;-78
2024/02/04 02:21:28;;;;;;;17.90;9.15;;;;;;;11.38;84.62;100277.09;4936774;28;20074;-79
2024/02/04 02:23:58;;;;;;;17.73;9.18;;;;;;;11.33;84.19;100279.13;4974778;28;20065;-77
2024/02/04 02:26:25;;;;;;;11.35;8.38;;;;;;;11.32;84.69;100274.75;4974475;28;20093;-78
2024/02/04 02:28:52;;;;;;;15.75;8.73;;;;;;;11.29;84.57;100273.13;4974713;28;20154;-79
2024/02/04 02:31:18;;;;;;;13.45;8.63;;;;;;;11.26;84.82;100273.31;4974662;28;20900;-80
2024/02/04 02:33:57;;;;;;;13.93;8.23;;;;;;;11.24;85.09;100264.63;4974866;28;20058;-78
2024/02/04 02:36:26;;;;;;;13.98;8.32;;;;;;;11.23;85.20;100265.56;4957075;28;20051;-77
2024/02/04 02:39:05;;;;;;;10.95;8.57;;;;;;;11.20;84.96;100258.66;4974566;28;20063;-79
2024/02/04 02:41:34;;;;;;;12.45;8.98;;;;;;;11.21;85.16;100256.88;4974495;28;20047;-79
2024/02/04 02:44:02;;;;;;;15.77;8.98;;;;;;;11.21;85.08;100246.31;4974700;28;20051;-77
2024/02/04 02:46:29;;;;;;;19.30;9.60;;;;;;;11.19;84.74;100248.22;4973583;28;20667;-79
2024/02/04 02:48:56;;;;;;;14.15;9.95;;;;;;;11.17;84.50;100248.28;4974443;28;20069;-78
2024/02/04 02:51:23;;;;;;;13.13;9.18;;;;;;;11.15;84.38;100251.94;4974469;28;20109;-78
2024/02/04 02:53:49;;;;;;;12.50;9.07;;;;;;;11.12;84.15;100247.66;4974323;28;20113;-79
2024/02/04 02:56:16;;;;;;;12.27;8.85;;;;;;;11.08;83.82;100246.13;4974174;28;20058;-80
2024/02/04 02:58:42;;;;;;;14.85;9.25;;;;;;;11.03;83.79;100248.97;4974399;28;20101;-78
2024/02/04 03:01:09;;;;;;;14.75;8.95;;;;;;;10.99;84.07;100242.16;4974387;28;20456;-80
2024/02/04 03:03:35;;;;;;;12.32;9.07;;;;;;;10.96;84.45;100247.59;4974364;28;20065;-78
2024/02/04 03:06:02;;;;;;;15.75;9.10;;;;;;;10.93;84.73;100248.63;4973837;28;20050;-79
2024/02/04 03:08:29;;;;;;;12.77;8.95;;;;;;;10.93;84.97;100242.50;4973867;28;20419;-80
2024/02/04 03:10:55;;;;;;;14.52;10.23;;;;;;;10.91;84.86;100244.34;4974287;28;20142;-77
2024/02/04 03:13:22;;;;;;;15.65;9.50;;;;;;;10.91;84.88;100249.59;4974204;28;20134;-78
2024/02/04 03:15:48;;;;;;;14.15;9.20;;;;;;;10.90;85.16;100247.91;4973750;28;20114;-78
2024/02/04 03:18:15;;;;;;;12.90;9.05;;;;;;;10.89;85.32;100238.31;4956757;28;20062;-80
2024/02/04 03:20:41;;;;;;;14.27;9.10;;;;;;;10.89;85.61;100246.22;4956754;28;20054;-77
2024/02/04 03:23:08;;;;;;;14.90;9.82;;;;;;;10.91;85.84;100233.78;4973706;28;20150;-80
2024/02/04 03:25:35;;;;;;;14.32;10.70;;;;;;;10.92;85.92;100240.78;4973673;28;20046;-79
2024/02/04 03:28:01;;;;;;;16.85;10.25;;;;;;;10.94;86.06;100229.25;4973910;28;20061;-77
2024/02/04 03:30:28;;;;;;;15.95;10.68;;;;;;;10.95;86.15;100230.06;4973804;28;20055;-79
2024/02/04 03:32:54;;;;;;;14.70;10.95;;;;;;;10.97;85.98;100228.22;4973434;28;20050;-79
2024/02/04 03:35:21;;;;;;;15.43;10.60;;;;;;;10.99;85.95;100231.63;4973289;28;20057;-80
2024/02/04 03:37:48;;;;;;;12.68;9.45;;;;;;;11.00;85.73;100235.97;4956327;28;20085;-76
2024/02/04 03:40:14;;;;;;;12.45;9.57;;;;;;;11.02;85.73;100236.75;4973599;28;20051;-80
2024/02/04 03:42:41;;;;;;;15.25;9.80;;;;;;;11.03;85.72;100234.97;4973435;28;20480;-78
2024/02/04 03:45:08;;;;;;;12.18;8.60;;;;;;;11.05;85.69;100230.47;4973225;28;20058;-79
2024/02/04 03:47:35;;;;;;;14.07;9.27;;;;;;;11.05;85.85;100236.59;4973390;28;20086;-80
2024/02/04 03:50:01;;;;;;;11.70;8.68;;;;;;;11.06;85.83;100243.56;4956068;28;20512;-80
2024/02/04 03:52:28;;;;;;;14.85;8.98;;;;;;;11.09;85.83;100234.66;4956229;28;20046;-78
2024/02/04 03:54:55;;;;;;;11.68;8.13;;;;;;;11.12;85.86;100244.16;4973023;28;20055;-80
2024/02/04 03:57:21;;;;;;;13.50;8.10;;;;;;;11.13;85.76;100254.63;4972165;28;20637;-79
2024/02/04 03:59:48;;;;;;;8.65;7.70;;;;;;;11.14;85.55;100245.78;4973175;28;20055;-78
2024/02/04 04:02:14;;;;;;;11.55;8.25;;;;;;;11.15;85.22;100246.66;4973127;28;20413;-79
2024/02/04 04:04:41;;;;;;;11.05;7.53;;;;;;;11.17;85.21;100239.50;4955590;28;20138;-77
2024/02/04 04:07:08;;;;;;;8.50;6.43;;;;;;;11.16;85.08;100220.22;4973140;28;20055;-79
2024/02/04 04:09:35;;;;;;;10.88;6.75;;;;;;;11.15;83.56;100239.63;4973134;28;20471;-78
2024/02/04 04:12:01;;;;;;;9.13;6.53;;;;;;;11.17;84.67;100239.50;4972989;28;20043;-78
2024/02/04 04:14:28;;;;;;;9.40;6.50;;;;;;;11.16;84.36;100220.22;4972723;28;20451;-80
2024/02/04 04:16:55;;;;;;;9.43;6.25;;;;;;;11.15;84.26;100236.97;4972394;28;20089;-78
2024/02/04 04:19:32;;;;;;;6.30;5.32;;;;;;;11.14;83.89;100223.88;5087842;27;20408;-79
2024/02/04 04:22:01;;;;;;;6.55;4.38;;;;;;;11.13;83.84;100232.69;5088073;28;20488;-78
2024/02/04 04:24:28;;;;;;;7.00;4.57;;;;;;;11.13;83.74;100243.22;5087654;28;20102;-78
2024/02/04 04:26:54;;;;;;;7.25;4.55;;;;;;;11.14;83.92;100244.97;5086634;28;20067;-79
2024/02/04 04:29:21;;;;;;;9.57;5.13;;;;;;;11.11;83.55;100251.25;5088007;28;20048;-80
2024/02/04 04:31:48;;;;;;;7.72;5.13;;;;;;;11.09;83.46;100250.47;5087634;28;20127;-78
2024/02/04 04:34:14;;;;;;;6.82;4.75;;;;;;;11.08;83.35;100241.72;5087769;28;20063;-79
2024/02/04 04:36:41;;;;;;;9.73;4.95;;;;;;;11.08;83.68;100251.38;5087929;28;20044;-77
2024/02/04 04:39:08;;;;;;;7.80;5.45;;;;;;;11.08;83.63;100247.00;5087605;28;20162;-80
2024/02/04 04:41:35;;;;;;;7.65;6.00;;;;;;;11.08;83.29;100246.13;5087599;28;20048;-79
2024/02/04 04:44:02;;;;;;;8.35;5.53;;;;;;;11.05;83.50;100244.50;5086299;28;20048;-78
2024/02/04 04:46:29;;;;;;;10.77;6.25;;;;;;;11.05;83.73;100241.88;5085964;28;20144;-78
2024/02/04 04:48:57;;;;;;;10.77;6.00;;;;;;;11.05;83.61;100241.88;5087811;28;20052;-79
2024/02/04 04:51:24;;;;;;;10.73;5.47;;;;;;;11.04;83.05;100250.72;5087329;28;20576;-83
2024/02/04 04:53:51;;;;;;;8.90;5.50;;;;;;;11.03;83.09;100241.06;5087240;28;20048;-77
2024/02/04 04:56:17;;;;;;;10.43;5.45;;;;;;;11.02;82.94;100242.00;5085762;28;20554;-78
2024/02/04 04:58:44;;;;;;;9.07;4.93;;;;;;;11.01;83.01;100247.34;5087060;28;20563;-78
2024/02/04 05:01:11;;;;;;;7.35;5.03;;;;;;;10.98;82.63;100245.72;5085793;28;20386;-80
2024/02/04 05:03:37;;;;;;;12.50;5.53;;;;;;;10.95;82.17;100252.00;5087280;28;20059;-78
2024/02/04 05:06:04;;;;;;;11.55;5.78;;;;;;;10.93;82.79;100263.56;5086985;28;20052;-77
2024/02/04 05:08:31;;;;;;;11.88;6.03;;;;;;;10.91;82.91;100250.47;5086959;28;20197;-79
2024/02/04 05:10:57;;;;;;;8.85;6.05;;;;;;;10.89;82.72;100236.53;5087098;28;20149;-79
2024/02/04 05:13:24;;;;;;;12.27;6.30;;;;;;;10.89;82.79;100252.34;5085694;28;20083;-80
2024/02/04 05:15:50;;;;;;;9.48;6.25;;;;;;;10.88;82.75;100247.13;5085259;28;20618;-79
2024/02/04 05:18:17;;;;;;;13.48;6.25;;;;;;;10.86;82.66;100249.84;5086852;28;20140;-80
2024/02/04 05:20:44;;;;;;;10.90;5.80;;;;;;;10.86;83.05;100246.34;5086947;28;20052;-78
2024/02/04 05:23:10;;;;;;;12.48;7.00;;;;;;;10.82;82.37;100243.91;5086829;28;20082;-79
2024/02/04 05:25:37;;;;;;;10.90;5.88;;;;;;;10.81;82.61;100236.91;5085296;28;20106;-79
2024/02/04 05:28:04;;;;;;;7.97;5.53;;;;;;;10.79;82.32;100215.06;5085606;28;20060;-79
2024/02/04 05:30:30;;;;;;;10.75;5.95;;;;;;;10.76;81.88;100209.94;5075336;28;20048;-78
2024/02/04 05:32:57;;;;;;;11.10;4.75;;;;;;;10.74;81.84;100206.56;5073287;28;20048;-79
2024/02/04 05:35:24;;;;;;;11.13;4.50;;;;;;;10.70;81.66;100207.63;5072822;28;20048;-80
2024/02/04 05:37:50;;;;;;;5.57;4.22;;;;;;;10.69;81.86;100216.44;5073127;28;20088;-77
2024/02/04 05:40:18;;;;;;;11.35;4.22;;;;;;;10.68;81.86;100222.66;5073065;28;20441;-78
2024/02/04 05:42:45;;;;;;;7.88;3.65;;;;;;;10.67;81.78;100221.81;5071794;28;20045;-79
2024/02/04 05:45:13;;;;;;;8.52;3.78;;;;;;;10.65;81.95;100225.47;5073040;28;20052;-80
2024/02/04 05:47:39;;;;;;;8.50;3.88;;;;;;;10.64;81.46;100203.53;5072958;28;20153;-79
2024/02/04 05:50:06;;;;;;;7.82;3.20;;;;;;;10.63;81.47;100200.97;5073185;28;20429;-79
2024/02/04 05:52:33;;;;;;;6.03;3.60;;;;;;;10.61;81.10;100187.88;5072871;28;20052;-80
2024/02/04 05:55:00;;;;;;;9.27;3.05;;;;;;;10.59;81.19;100192.38;5071318;28;20056;-77
2024/02/04 05:57:31;;;;;;;8.10;2.67;;;;;;;10.57;80.92;100188.13;5072924;28;20098;-78
2024/02/04 05:59:59;;;;;;;7.05;2.80;;;;;;;10.53;80.87;100195.31;5073016;28;20084;-78
2024/02/04 06:02:26;;;;;;;7.07;2.30;;;;;;;10.52;81.02;100204.13;5072637;28;20142;-78
2024/02/04 06:04:53;;;;;;;6.35;1.90;;;;;;;10.49;81.05;100199.88;5072494;28;20051;-77
2024/02/04 06:07:20;;;;;;;8.43;2.53;;;;;;;10.47;81.20;100206.97;5071273;28;20131;-78
2024/02/04 06:09:47;;;;;;;7.30;2.33;;;;;;;10.47;81.15;100208.78;5072347;28;20084;-78
2024/02/04 06:12:13;;;;;;;4.90;2.13;;;;;;;10.45;81.05;100189.56;5072444;28;20045;-79
2024/02/04 06:14:40;;;;;;;9.32;2.28;;;;;;;10.44;81.03;100204.53;5072275;28;20486;-79
2024/02/04 06:17:08;;;;;;;7.35;1.92;;;;;;;10.43;81.49;100200.13;5072529;28;20045;-77
2024/02/04 06:19:35;;;;;;;9.73;2.42;;;;;;;10.45;81.36;100193.06;5072393;28;20489;-79
2024/02/04 06:22:02;;;;;;;8.98;1.90;;;;;;;10.45;81.15;100194.84;5072349;28;20087;-77
2024/02/04 06:24:28;;;;;;;6.97;2.15;;;;;;;10.45;81.02;100193.06;5071839;28;20380;-78
2024/02/04 06:26:55;;;;;;;6.32;2.15;;;;;;;10.43;81.06;100181.72;5072407;28;20059;-79
2024/02/04 06:29:22;;;;;;;6.43;1.75;;;;;;;10.43;80.67;100164.16;5072359;28;20135;-79
2024/02/04 06:31:48;;;;;;;7.00;1.70;;;;;;;10.42;80.36;100156.34;5072232;28;20135;-78
2024/02/04 06:34:15;;;;;;;5.55;2.10;;;;;;;10.40;80.00;100152.94;5070732;28;20064;-78
2024/02/04 06:36:44;;;;;;;4.85;1.60;;;;;;;10.40;80.21;100152.94;5071834;28;20052;-78
2024/02/04 06:39:11;;;;;;;8.02;1.98;;;;;;;10.41;80.61;100158.13;5070953;28;20538;-78
2024/02/04 06:41:37;;;;;;;7.97;1.83;;;;;;;10.40;80.21;100169.56;5071155;28;20091;-78
2024/02/04 06:44:04;;;;;;;8.27;2.20;;;;;;;10.39;80.14;100173.13;5072080;28;20056;-78
2024/02/04 06:46:31;;;;;;;8.73;1.75;;;;;;;10.40;80.22;100176.63;5071405;28;20094;-78
2024/02/04 06:48:57;;;;;;;6.57;1.85;;;;;;;10.40;80.16;100187.16;5070605;28;20136;-78
2024/02/04 06:51:24;;;;;;;7.95;2.00;;;;;;;10.41;80.31;100191.47;5071717;28;20044;-77
2024/02/04 06:53:51;;;;;;;10.82;2.03;;;;;;;10.41;80.13;100194.97;5071714;28;20474;-79
2024/02/04 06:56:17;;;;;;;7.65;2.25;;;;;;;10.41;79.98;100202.00;5071644;28;20110;-80
2024/02/04 06:58:44;;;;;;;10.48;2.30;;;;;;;10.41;79.94;100188.84;5071662;28;20060;-80
2024/02/04 07:01:12;;;;;;;6.72;1.80;;;;;;;10.39;79.27;100193.34;5071535;28;20124;-79
2024/02/04 07:03:38;;;;;;;5.13;1.88;;;;;;;10.41;79.71;100191.47;5070227;28;20052;-78
2024/02/04 07:06:06;;;;;;;6.70;2.22;;;;;;;10.41;79.80;100194.97;5071083;28;20063;-77
2024/02/04 07:08:32;;;;;;;8.30;2.30;;;;;;;10.42;79.59;100180.00;5071614;28;20107;-79
2024/02/04 07:10:59;;;;;;;5.15;1.85;;;;;;;10.41;79.16;100184.44;5071365;28;20084;-79
2024/02/04 07:13:26;;;;;;;7.32;2.33;;;;;;;10.42;79.42;100180.00;5071468;28;20044;-77
2024/02/04 07:15:54;;;;;;;9.05;2.22;;;;;;;10.40;78.95;100177.47;5071027;28;20121;-77
2024/02/04 07:18:21;;;;;;;7.22;2.22;;;;;;;10.41;79.33;100194.97;5070045;28;20045;-77
2024/02/04 07:20:48;;;;;;;7.30;1.80;;;;;;;10.40;78.61;100176.63;5070392;28;20056;-79
2024/02/04 07:23:15;;;;;;;11.13;2.28;;;;;;;10.39;79.24;100181.03;5069937;28;20807;-77
2024/02/04 07:25:42;;;;;;;13.88;2.63;;;;;;;10.40;79.33;100187.16;5070822;28;20502;-78
2024/02/04 07:28:09;;;;;;;7.07;1.92;;;;;;;10.39;79.23;100190.72;5071271;28;20051;-77
2024/02/04 07:30:35;;;;;;;8.85;2.35;;;;;;;10.41;78.86;100188.84;5069838;28;20044;-77
2024/02/04 07:33:02;;;;;;;11.32;2.10;;;;;;;10.38;78.34;100170.56;5070972;28;20052;-77
2024/02/04 07:35:29;;;;;;;11.15;2.30;;;;;;;10.37;78.60;100177.63;5070897;28;20049;-77
2024/02/04 07:37:56;;;;;;;9.85;2.30;;;;;;;10.37;78.31;100188.16;5070998;28;20075;-78
2024/02/04 07:40:24;;;;;;;9.52;1.85;;;;;;;10.36;78.00;100196.13;5071105;28;20138;-77
2024/02/04 07:42:50;;;;;;;9.18;1.98;;;;;;;10.35;78.17;100194.44;5069685;28;20099;-78
2024/02/04 07:45:18;;;;;;;9.05;2.17;;;;;;;10.35;78.29;100192.63;5069272;28;20053;-77
2024/02/04 07:47:44;;;;;;;7.65;1.88;;;;;;;10.35;78.41;100195.25;5069385;28;20056;-80
2024/02/04 07:50:11;;;;;;;10.20;2.10;;;;;;;10.35;78.58;100189.16;5070931;28;20048;-79
2024/02/04 07:52:37;;;;;;;11.02;1.85;;;;;;;10.34;78.15;100183.03;5069326;28;20098;-80
2024/02/04 07:55:08;;;;;;;7.95;1.75;;;;;;;10.35;77.94;100163.69;5069236;28;20053;-80
2024/02/04 07:57:34;;;;;;;9.75;2.08;;;;;;;10.34;78.10;100177.78;5070758;28;20048;-79
2024/02/04 08:00:05;;;;;;;9.63;1.80;;;;;;;10.33;78.02;100183.97;5070573;28;20052;-79
2024/02/04 08:02:31;;;;;;;10.50;2.05;;;;;;;10.33;77.82;100181.34;5069377;28;20044;-81
2024/02/04 08:04:58;;;;;;;9.48;2.45;;;;;;;10.32;78.03;100174.34;5069202;28;20127;-84
2024/02/04 08:07:24;;;;;;;7.00;1.55;;;;;;;10.32;78.08;100174.34;5069359;28;20060;-80
2024/02/04 08:09:52;;;;;;;9.80;1.83;;;;;;;10.31;78.08;100162.13;5070553;28;20057;-81
2024/02/04 08:12:18;;;;;;;12.65;2.80;;;;;;;10.29;77.49;100177.16;5069152;28;20053;-81
2024/02/04 08:14:45;;;;;;;8.77;2.00;;;;;;;10.29;76.75;100179.78;5068772;28;20059;-81
2024/02/04 08:17:12;;;;;;;12.23;1.70;;;;;;;10.28;77.79;100168.41;5069275;28;20044;-81
2024/02/04 08:19:38;;;;;;;11.43;2.20;;;;;;;10.27;77.83;100164.06;5070525;28;20048;-82
2024/02/04 08:22:05;;;;;;;11.65;2.08;;;;;;;10.27;77.91;100161.44;5069397;28;20408;-81
2024/02/04 08:24:33;;;;;;;11.65;1.85;;;;;;;10.27;77.87;100161.44;5070369;28;20107;-80
2024/02/04 08:27:00;;;;;;;9.73;2.45;;;;;;;10.27;77.88;100161.44;5070533;28;20063;-80
2024/02/04 08:29:27;;;;;;;16.05;2.70;;;;;;;10.27;77.20;100158.81;5069085;28;20088;-80
2024/02/04 08:31:53;;;;;;;12.13;2.42;;;;;;;10.27;77.25;100156.16;5070350;28;20155;-79
2024/02/04 08:34:21;;;;;;;9.40;1.85;;;;;;;10.27;77.21;100153.53;5070335;28;20079;-81
2024/02/04 08:36:48;;;;;;;11.10;2.03;;;;;;;10.28;77.43;100152.59;5070245;28;20102;-81
2024/02/04 08:39:14;;;;;;;13.10;2.15;;;;;;;10.28;77.42;100157.03;5069170;28;20055;-80
2024/02/04 08:41:41;;;;;;;8.77;1.90;;;;;;;10.29;77.49;100154.31;5070274;28;20131;-80
2024/02/04 08:44:08;;;;;;;9.30;2.28;;;;;;;10.30;77.64;100153.41;5069001;28;20083;-80
2024/02/04 08:46:38;;;;;;;9.25;1.95;;;;;;;10.32;77.69;100152.47;5069235;28;20431;-81
2024/02/04 08:49:05;;;;;;;9.60;2.10;;;;;;;10.31;77.36;100162.13;5102643;28;20504;-81
2024/02/04 08:51:32;;;;;;;10.60;2.15;;;;;;;10.31;76.74;100162.13;5070350;28;20048;-81
2024/02/04 08:53:59;;;;;;;8.52;2.15;;;;;;;10.32;77.18;100153.28;5068967;28;20048;-81
2024/02/04 08:56:25;;;;;;;9.35;1.98;;;;;;;10.34;77.39;100138.31;5069880;28;20139;-81
2024/02/04 08:58:52;;;;;;;8.98;2.25;;;;;;;10.36;77.50;100146.94;5068995;28;20060;-80
2024/02/04 09:01:19;;;;;;;7.05;1.90;;;;;;;10.38;77.49;100141.63;5070216;28;20075;-80
2024/02/04 09:03:46;;;;;;;12.48;2.28;;;;;;;10.40;77.59;100135.34;5069969;28;20053;-81
2024/02/04 09:06:12;;;;;;;8.70;2.25;;;;;;;10.42;77.44;100133.50;5071934;28;20080;-80
2024/02/04 09:08:39;;;;;;;7.35;1.73;;;;;;;10.46;77.36;100128.13;5073686;28;20413;-82
2024/02/04 09:11:06;;;;;;;9.32;2.17;;;;;;;10.50;77.63;100132.31;5072485;28;20132;-81
2024/02/04 09:13:32;;;;;;;5.47;1.60;;;;;;;10.53;77.11;100137.41;5073940;28;20048;-80
2024/02/04 09:15:59;;;;;;;6.68;1.50;;;;;;;10.56;76.71;100134.63;5072526;28;20485;-79
2024/02/04 09:18:26;;;;;;;6.25;2.15;;;;;;;10.61;77.22;100129.13;5073568;28;20084;-80
2024/02/04 09:20:52;;;;;;;5.15;1.48;;;;;;;10.66;77.23;100129.75;5072448;28;20411;-80
2024/02/04 09:23:19;;;;;;;4.10;1.58;;;;;;;10.70;76.94;100133.91;5072197;28;20044;-79
2024/02/04 09:25:46;;;;;;;4.97;1.45;;;;;;;10.74;76.78;100135.47;5073105;28;20102;-79
2024/02/04 09:28:12;;;;;;;5.07;1.10;;;;;;;10.80;76.78;100127.22;5073646;28;20044;-79
2024/02/04 09:30:39;;;;;;;3.55;1.35;;;;;;;10.83;76.25;100131.50;5073433;28;20098;-80
2024/02/04 09:33:06;;;;;;;5.65;1.60;;;;;;;10.88;76.42;100133.91;5073375;28;20052;-80
2024/02/04 09:35:33;;;;;;;4.20;1.45;;;;;;;10.92;76.76;100138.91;5071936;28;20084;-79
2024/02/04 09:38:00;;;;;;;7.63;1.90;;;;;;;10.98;76.90;100139.53;5073476;28;20459;-80
2024/02/04 09:40:26;;;;;;;3.80;1.33;;;;;;;11.01;76.67;100131.44;5073124;28;20105;-79
2024/02/04 09:42:54;;;;;;;5.40;1.55;;;;;;;11.05;76.95;100133.00;5073402;28;20061;-79
2024/02/04 09:45:20;;;;;;;4.10;1.67;;;;;;;11.07;76.02;100131.97;5071643;28;20547;-79
2024/02/04 09:47:50;;;;;;;4.90;1.23;;;;;;;11.11;75.08;100139.72;5073315;28;20057;-79
2024/02/04 09:50:16;;;;;;;8.60;1.90;;;;;;;11.14;76.02;100132.50;5073120;28;20135;-81
2024/02/04 09:52:51;;;;;;;4.35;1.08;;;;;;;11.16;74.25;100145.59;5071788;28;20060;-80
2024/02/04 09:55:21;;;;;;;4.85;1.10;;;;;;;11.21;76.16;100146.19;5072842;28;20425;-78
2024/02/04 09:57:48;;;;;;;4.05;1.50;;;;;;;11.25;76.62;100153.00;5073495;28;20382;-79
2024/02/04 10:00:20;;;;;;;4.95;1.13;;;;;;;11.27;75.02;100156.41;5073139;28;20048;-79
2024/02/04 10:02:48;;;;;;;5.88;1.58;;;;;;;11.33;76.37;100160.53;5072995;28;20049;-79
2024/02/04 10:05:15;;;;;;;4.93;1.33;;;;;;;11.34;76.27;100144.59;5071338;28;20083;-79
2024/02/04 10:07:42;;;;;;;4.35;1.20;;;;;;;11.36;74.47;100136.63;5105408;28;20084;-80
2024/02/04 10:10:09;;;;;;;5.13;1.20;;;;;;;11.40;76.01;100137.31;5105322;28;20056;-80
2024/02/04 10:12:38;;;;;;;2.97;1.00;;;;;;;11.41;76.10;100142.50;5071489;28;20056;-80
2024/02/04 10:15:06;;;;;;;4.60;1.20;;;;;;;11.44;75.50;100133.59;5072386;28;20060;-80
2024/02/04 10:17:32;;;;;;;3.17;0.90;;;;;;;11.46;75.48;100140.47;5072624;28;20055;-79
2024/02/04 10:20:00;;;;;;;2.80;1.15;;;;;;;11.48;75.36;100137.75;5071456;28;20054;-79
2024/02/04 10:22:30;;;;;;;8.48;1.40;;;;;;;11.49;75.44;100152.63;5072549;28;20089;-79
2024/02/04 10:25:12;;;;;;;2.45;1.08;;;;;;;11.47;73.18;100154.47;5072146;28;20576;-81
2024/02/04 10:27:39;;;;;;;3.40;1.17;;;;;;;11.52;75.68;100148.97;5072555;28;20049;-82
2024/02/04 10:30:06;;;;;;;2.15;1.00;;;;;;;11.52;75.48;100154.25;5072372;28;20464;-80
2024/02/04 10:32:34;;;;;;;7.55;1.70;;;;;;;11.51;75.24;100156.00;5071010;28;20099;-81
2024/02/04 10:35:01;;;;;;;2.45;1.33;;;;;;;11.51;75.64;100158.66;5072257;28;20102;-79
2024/02/04 10:37:28;;;;;;;7.05;1.83;;;;;;;11.49;75.38;100157.91;5072282;28;20102;-79
2024/02/04 10:39:56;;;;;;;2.85;1.50;;;;;;;11.48;75.51;100153.56;5070943;28;20090;-80
2024/02/04 10:42:25;;;;;;;5.70;1.80;;;;;;;11.46;75.23;100163.31;5072113;28;20041;-81
2024/02/04 10:44:54;;;;;;;5.82;2.25;;;;;;;11.44;75.05;100150.22;5071876;28;20456;-79
2024/02/04 10:47:30;;;;;;;5.05;1.98;;;;;;;11.40;74.04;100140.78;5072384;28;20079;-80
2024/02/04 10:49:59;;;;;;;7.07;2.13;;;;;;;11.43;75.33;100142.41;5072150;28;20053;-80
2024/02/04 10:52:27;;;;;;;4.18;2.10;;;;;;;11.43;75.98;100147.66;5071987;28;20063;-83
2024/02/04 10:54:55;;;;;;;6.35;2.28;;;;;;;11.44;76.50;100152.88;5071657;28;20056;-82
2024/02/04 10:57:27;;;;;;;5.25;2.15;;;;;;;11.46;76.92;100147.50;5070556;28;20048;-81
2024/02/04 10:59:53;;;;;;;5.90;1.95;;;;;;;11.48;77.03;100143.03;5071683;28;20501;-80
2024/02/04 11:02:20;;;;;;;4.72;2.38;;;;;;;11.50;76.94;100138.50;5071916;28;20157;-80
2024/02/04 11:04:49;;;;;;;3.50;1.98;;;;;;;11.52;76.26;100138.44;5071400;28;20539;-83
2024/02/04 11:07:18;;;;;;;4.32;2.47;;;;;;;11.54;76.40;100163.78;5071709;28;20040;-79
2024/02/04 11:09:49;;;;;;;7.47;2.38;;;;;;;11.55;75.84;100149.66;5071904;28;20061;-80
2024/02/04 11:12:18;;;;;;;7.25;2.10;;;;;;;11.56;75.98;100148.69;5070862;28;20088;-78
2024/02/04 11:14:50;;;;;;;9.60;2.42;;;;;;;11.56;75.91;100151.34;5071474;28;20131;-78
2024/02/04 11:17:31;;;;;;;5.55;2.42;;;;;;;11.57;76.27;100139.00;5071504;28;20052;-82
2024/02/04 11:20:32;;;;;;;3.00;1.98;;;;;;;11.51;73.50;100137.56;5070195;28;20058;-81